createdAt,value
2022-08-24T00:00:29.519Z,61.85
2022-08-24T00:01:32.155Z,62.15
2022-08-24T00:02:35.264Z,62.35
2022-08-24T00:03:39.625Z,62.79
2022-08-24T00:04:41.329Z,62.52
2022-08-24T00:05:44.026Z,62.54
2022-08-24T00:06:45.609Z,62.74
2022-08-24T00:07:49.697Z,62.77
2022-08-24T00:08:52.715Z,62.59
2022-08-24T00:09:55.291Z,62.92
2022-08-24T00:10:59.624Z,62.83
2022-08-24T00:12:01.283Z,62.88
2022-08-24T00:13:04.447Z,62.63
2022-08-24T00:14:06.819Z,62.74
2022-08-24T00:15:11.947Z,62.70
2022-08-24T00:16:15.244Z,62.49
2022-08-24T00:17:20.443Z,62.62
2022-08-24T00:18:23.425Z,62.48
2022-08-24T00:19:26.516Z,63.11
2022-08-24T00:20:29.092Z,62.59
2022-08-24T00:21:31.723Z,62.84
2022-08-24T00:22:33.400Z,62.96
2022-08-24T00:23:36.994Z,63.23
2022-08-24T00:24:39.358Z,62.77
2022-08-24T00:25:42.527Z,63.27
2022-08-24T00:26:45.950Z,63.06
2022-08-24T00:27:48.930Z,63.27
2022-08-24T00:28:50.520Z,63.48
2022-08-24T00:29:53.107Z,63.23
2022-08-24T00:30:54.845Z,63.37
2022-08-24T00:31:57.452Z,63.39
2022-08-24T00:32:59.422Z,63.30
2022-08-24T00:34:03.567Z,63.26
2022-08-24T00:35:06.723Z,63.21
2022-08-24T00:36:09.628Z,63.69
2022-08-24T00:37:11.254Z,63.35
2022-08-24T00:38:14.263Z,63.46
2022-08-24T00:39:16.097Z,63.41
2022-08-24T00:40:22.147Z,63.41
2022-08-24T00:41:24.469Z,63.24
2022-08-24T00:42:27.165Z,63.76
2022-08-24T00:43:29.486Z,63.77
2022-08-24T00:44:32.115Z,63.33
2022-08-24T00:45:40.631Z,63.50
2022-08-24T00:46:46.836Z,63.43
2022-08-24T00:47:51.939Z,63.36
2022-08-24T00:49:47.415Z,63.55
2022-08-24T00:50:55.762Z,63.65
2022-08-24T00:52:04.806Z,63.51
2022-08-24T00:53:11.829Z,63.67
2022-08-24T00:54:17.572Z,63.86
2022-08-24T00:55:26.352Z,63.94
2022-08-24T00:56:32.570Z,64.06
2022-08-24T00:57:39.962Z,64.28
2022-08-24T00:58:47.395Z,64.27
2022-08-24T01:00:05.107Z,64.35
2022-08-24T01:01:11.239Z,64.43
2022-08-24T01:02:18.328Z,64.61
2022-08-24T01:03:21.613Z,64.46
2022-08-24T01:04:29.780Z,64.18
2022-08-24T01:05:34.236Z,64.48
2022-08-24T01:06:37.372Z,64.66
2022-08-24T01:07:41.016Z,64.73
2022-08-24T01:08:43.417Z,64.63
2022-08-24T01:09:47.268Z,64.66
2022-08-24T01:10:52.784Z,64.47
2022-08-24T01:11:55.445Z,64.31
2022-08-24T01:13:01.526Z,64.64
2022-08-24T01:14:04.343Z,65.09
2022-08-24T01:15:09.945Z,64.74
2022-08-24T01:16:13.543Z,64.87
2022-08-24T01:17:38.779Z,65.27
2022-08-24T01:18:50.619Z,65.13
2022-08-24T01:19:56.264Z,65.06
2022-08-24T01:21:03.541Z,65.37
2022-08-24T01:22:26.984Z,65.41
2022-08-24T01:23:37.004Z,65.25
2022-08-24T01:24:40.421Z,65.69
2022-08-24T01:25:44.985Z,65.64
2022-08-24T01:26:50.260Z,66.04
2022-08-24T01:27:55.818Z,66.28
2022-08-24T01:29:03.948Z,66.25
2022-08-24T01:30:10.540Z,66.27
2022-08-24T01:31:14.425Z,66.40
2022-08-24T01:32:18.438Z,66.54
2022-08-24T01:33:25.833Z,66.57
2022-08-24T01:34:27.555Z,66.68
2022-08-24T01:35:31.264Z,66.44
2022-08-24T01:36:36.092Z,66.75
2022-08-24T01:37:40.265Z,66.75
2022-08-24T01:38:43.903Z,66.95
2022-08-24T01:39:48.892Z,66.91
2022-08-24T01:40:54.948Z,67.13
2022-08-24T01:41:58.386Z,67.24
2022-08-24T01:43:00.377Z,67.19
2022-08-24T01:44:03.301Z,67.32
2022-08-24T01:45:07.177Z,67.43
2022-08-24T01:46:10.474Z,67.49
2022-08-24T01:47:15.160Z,67.75
2022-08-24T01:48:19.911Z,67.70
2022-08-24T01:49:35.375Z,67.87
2022-08-24T01:50:38.357Z,67.82
2022-08-24T01:51:39.991Z,68.08
2022-08-24T01:53:04.325Z,68.04
2022-08-24T01:54:08.033Z,67.93
2022-08-24T01:55:13.519Z,68.43
2022-08-24T01:56:16.679Z,68.42
2022-08-24T01:57:20.311Z,68.35
2022-08-24T01:58:25.732Z,68.43
2022-08-24T01:59:27.440Z,68.59
2022-08-24T02:00:30.856Z,68.42
2022-08-24T02:01:37.395Z,68.43
2022-08-24T02:02:41.266Z,68.72
2022-08-24T02:03:43.800Z,68.56
2022-08-24T02:04:46.656Z,68.68
2022-08-24T02:05:48.427Z,68.69
2022-08-24T02:06:51.082Z,68.82
2022-08-24T02:07:53.024Z,69.09
2022-08-24T02:08:55.879Z,68.88
2022-08-24T02:09:59.107Z,69.14
2022-08-24T02:11:01.706Z,69.28
2022-08-24T02:12:04.148Z,69.11
2022-08-24T02:13:07.125Z,69.18
2022-08-24T02:14:08.796Z,69.10
2022-08-24T02:15:12.806Z,69.19
2022-08-24T02:16:15.721Z,69.16
2022-08-24T02:17:18.620Z,69.20
2022-08-24T02:18:21.321Z,69.11
2022-08-24T02:19:22.973Z,69.13
2022-08-24T02:20:26.013Z,69.11
2022-08-24T02:21:27.642Z,69.07
2022-08-24T02:22:30.214Z,69.06
2022-08-24T02:23:32.292Z,69.11
2022-08-24T02:24:35.344Z,68.99
2022-08-24T02:25:38.324Z,68.71
2022-08-24T02:26:41.127Z,68.59
2022-08-24T02:27:42.812Z,68.78
2022-08-24T02:28:46.531Z,68.72
2022-08-24T02:29:48.192Z,68.93
2022-08-24T02:30:50.856Z,68.84
2022-08-24T02:31:52.459Z,68.58
2022-08-24T02:32:55.188Z,68.97
2022-08-24T02:33:58.288Z,68.79
2022-08-24T02:35:00.854Z,69.18
2022-08-24T02:36:02.966Z,69.08
2022-08-24T02:37:07.576Z,69.30
2022-08-24T02:38:09.904Z,69.64
2022-08-24T02:39:12.706Z,69.60
2022-08-24T02:40:14.500Z,69.42
2022-08-24T02:41:18.557Z,69.53
2022-08-24T02:42:20.155Z,69.64
2022-08-24T02:43:22.744Z,69.61
2022-08-24T02:44:24.687Z,69.90
2022-08-24T02:45:27.332Z,69.92
2022-08-24T02:46:30.821Z,69.96
2022-08-24T02:47:39.255Z,70.04
2022-08-24T02:48:41.654Z,70.27
2022-08-24T02:49:44.872Z,70.48
2022-08-24T02:50:49.195Z,70.20
2022-08-24T02:51:51.948Z,70.42
2022-08-24T02:52:54.299Z,70.33
2022-08-24T02:53:58.216Z,70.31
2022-08-24T02:54:59.842Z,70.58
2022-08-24T02:56:02.530Z,70.61
2022-08-24T02:57:05.948Z,70.51
2022-08-24T02:58:09.755Z,70.90
2022-08-24T02:59:11.531Z,70.93
2022-08-24T03:00:19.203Z,71.51
2022-08-24T03:01:24.030Z,71.22
2022-08-24T03:02:32.980Z,71.10
2022-08-24T03:03:34.890Z,71.15
2022-08-24T03:04:38.943Z,71.26
2022-08-24T03:05:42.623Z,71.45
2022-08-24T03:06:45.306Z,71.64
2022-08-24T03:07:47.610Z,71.68
2022-08-24T03:08:56.178Z,71.65
2022-08-24T03:09:58.689Z,71.39
2022-08-24T03:11:01.511Z,71.51
2022-08-24T03:12:05.105Z,71.61
2022-08-24T03:13:07.920Z,71.46
2022-08-24T03:14:10.254Z,71.43
2022-08-24T03:15:13.922Z,71.62
2022-08-24T03:16:16.722Z,71.55
2022-08-24T03:17:19.308Z,71.45
2022-08-24T03:18:21.280Z,71.86
2022-08-24T03:19:27.953Z,71.62
2022-08-24T03:20:29.834Z,71.95
2022-08-24T03:21:33.220Z,71.61
2022-08-24T03:22:34.902Z,72.15
2022-08-24T03:23:38.093Z,71.98
2022-08-24T03:24:39.906Z,71.99
2022-08-24T03:25:42.825Z,71.92
2022-08-24T03:26:44.688Z,71.85
2022-08-24T03:27:48.680Z,72.07
2022-08-24T03:28:52.022Z,71.98
2022-08-24T03:29:54.702Z,71.90
2022-08-24T03:30:56.437Z,71.85
2022-08-24T03:31:59.887Z,72.04
2022-08-24T03:33:01.621Z,72.19
2022-08-24T03:34:04.515Z,71.98
2022-08-24T03:35:07.388Z,72.03
2022-08-24T03:36:13.646Z,72.29
2022-08-24T03:37:17.332Z,72.06
2022-08-24T03:38:19.471Z,71.91
2022-08-24T03:39:22.180Z,72.17
2022-08-24T03:40:24.802Z,72.45
2022-08-24T03:41:27.890Z,72.24
2022-08-24T03:42:29.532Z,72.36
2022-08-24T03:43:49.073Z,72.30
2022-08-24T03:44:50.703Z,72.29
2022-08-24T03:45:53.310Z,72.40
2022-08-24T03:46:55.130Z,72.52
2022-08-24T03:47:58.227Z,72.54
2022-08-24T03:49:00.068Z,72.36
2022-08-24T03:50:02.894Z,72.56
2022-08-24T03:51:04.712Z,72.32
2022-08-24T03:52:08.155Z,72.78
2022-08-24T03:53:09.729Z,72.62
2022-08-24T03:54:14.414Z,72.53
2022-08-24T03:55:16.273Z,72.70
2022-08-24T03:56:19.046Z,72.74
2022-08-24T03:57:20.685Z,72.58
2022-08-24T03:58:23.350Z,72.69
2022-08-24T03:59:26.439Z,72.79
2022-08-24T04:00:29.059Z,72.70
2022-08-24T04:01:31.005Z,72.47
2022-08-24T04:02:34.074Z,72.63
2022-08-24T04:03:36.894Z,72.98
2022-08-24T04:04:39.483Z,72.85
2022-08-24T04:05:42.310Z,72.98
2022-08-24T04:06:46.776Z,72.57
2022-08-24T04:07:48.595Z,72.98
2022-08-24T04:08:52.296Z,72.96
2022-08-24T04:09:54.130Z,73.13
2022-08-24T04:10:56.779Z,72.89
2022-08-24T04:11:59.527Z,72.98
2022-08-24T04:13:01.525Z,72.74
2022-08-24T04:14:05.135Z,72.47
2022-08-24T04:15:10.004Z,72.78
2022-08-24T04:16:15.256Z,72.71
2022-08-24T04:17:16.997Z,72.54
2022-08-24T04:18:19.800Z,72.67
2022-08-24T04:19:21.516Z,72.76
2022-08-24T04:20:25.723Z,72.71
2022-08-24T04:21:29.138Z,72.48
2022-08-24T04:22:33.986Z,72.20
2022-08-24T04:23:46.986Z,72.30
2022-08-24T04:24:50.546Z,72.26
2022-08-24T04:25:52.191Z,72.07
2022-08-24T04:26:54.858Z,72.03
2022-08-24T04:27:56.561Z,72.03
2022-08-24T04:28:59.944Z,71.84
2022-08-24T04:30:01.607Z,72.05
2022-08-24T04:31:07.399Z,71.88
2022-08-24T04:32:09.587Z,71.89
2022-08-24T04:33:13.401Z,72.01
2022-08-24T04:34:16.386Z,71.82
2022-08-24T04:35:19.050Z,71.52
2022-08-24T04:36:21.804Z,71.50
2022-08-24T04:37:29.165Z,71.34
2022-08-24T04:38:31.514Z,71.70
2022-08-24T04:39:34.469Z,71.33
2022-08-24T04:40:39.609Z,71.25
2022-08-24T04:41:42.759Z,71.90
2022-08-24T04:42:44.545Z,71.23
2022-08-24T04:43:49.350Z,71.18
2022-08-24T04:44:51.137Z,71.19
2022-08-24T04:45:53.977Z,71.21
2022-08-24T04:46:58.382Z,70.80
2022-08-24T04:48:00.240Z,70.83
2022-08-24T04:49:02.952Z,70.99
2022-08-24T04:50:05.819Z,70.40
2022-08-24T04:51:14.075Z,70.29
2022-08-24T04:52:16.086Z,70.02
2022-08-24T04:53:18.723Z,69.95
2022-08-24T04:54:20.563Z,69.96
2022-08-24T04:55:23.177Z,69.69
2022-08-24T04:56:26.124Z,69.69
2022-08-24T04:57:28.784Z,69.47
2022-08-24T04:58:31.455Z,69.02
2022-08-24T04:59:34.041Z,69.11
2022-08-24T05:00:35.798Z,68.68
2022-08-24T05:01:38.385Z,68.65
2022-08-24T05:02:44.872Z,68.29
2022-08-24T05:03:50.207Z,68.43
2022-08-24T05:04:52.866Z,68.05
2022-08-24T05:05:54.529Z,68.08
2022-08-24T05:06:57.208Z,68.04
2022-08-24T05:07:58.832Z,67.93
2022-08-24T05:09:02.323Z,67.75
2022-08-24T05:10:05.582Z,67.51
2022-08-24T05:11:12.015Z,67.19
2022-08-24T05:12:13.801Z,67.23
2022-08-24T05:13:17.227Z,67.24
2022-08-24T05:14:18.968Z,67.05
2022-08-24T05:15:21.713Z,67.04
2022-08-24T05:16:24.939Z,66.89
2022-08-24T05:17:28.631Z,66.59
2022-08-24T05:18:33.477Z,66.63
2022-08-24T05:19:36.124Z,66.60
2022-08-24T05:20:39.722Z,66.41
2022-08-24T05:21:44.222Z,66.39
2022-08-24T05:22:46.003Z,66.30
2022-08-24T05:23:48.690Z,66.13
2022-08-24T05:24:51.707Z,66.06
2022-08-24T05:25:53.419Z,65.94
2022-08-24T05:26:56.401Z,65.85
2022-08-24T05:27:58.268Z,65.76
2022-08-24T05:29:02.804Z,65.94
2022-08-24T05:30:05.910Z,65.72
2022-08-24T05:31:10.795Z,65.39
2022-08-24T05:32:19.086Z,65.29
2022-08-24T05:33:20.802Z,65.22
2022-08-24T05:34:25.070Z,65.33
2022-08-24T05:35:26.722Z,65.03
2022-08-24T05:36:31.100Z,65.17
2022-08-24T05:37:35.059Z,64.81
2022-08-24T05:38:37.642Z,64.83
2022-08-24T05:39:39.291Z,64.68
2022-08-24T05:40:42.129Z,64.51
2022-08-24T05:41:45.584Z,64.23
2022-08-24T05:42:48.533Z,63.91
2022-08-24T05:43:50.865Z,63.65
2022-08-24T05:44:53.559Z,63.40
2022-08-24T05:45:55.456Z,62.98
2022-08-24T05:46:59.446Z,62.57
2022-08-24T05:48:01.164Z,62.44
2022-08-24T05:49:03.805Z,62.39
2022-08-24T05:50:08.166Z,61.86
2022-08-24T05:51:11.930Z,61.97
2022-08-24T05:52:14.038Z,61.67
2022-08-24T05:53:16.722Z,61.31
2022-08-24T05:54:19.811Z,61.42
2022-08-24T05:55:21.505Z,60.94
2022-08-24T05:56:26.734Z,61.10
2022-08-24T05:57:33.579Z,60.83
2022-08-24T05:58:37.895Z,60.88
2022-08-24T05:59:40.032Z,60.66
2022-08-24T06:00:45.629Z,60.49
2022-08-24T06:01:47.321Z,60.40
2022-08-24T06:02:52.714Z,60.54
2022-08-24T06:03:55.969Z,60.25
2022-08-24T06:04:58.690Z,59.80
2022-08-24T06:06:02.860Z,59.92
2022-08-24T06:07:06.172Z,59.71
2022-08-24T06:08:08.240Z,59.28
2022-08-24T06:09:11.997Z,59.74
2022-08-24T06:10:35.379Z,59.58
2022-08-24T06:11:39.181Z,58.85
2022-08-24T06:12:40.761Z,58.71
2022-08-24T06:13:43.571Z,58.26
2022-08-24T06:14:47.431Z,58.78
2022-08-24T06:16:10.906Z,58.07
2022-08-24T06:17:12.489Z,57.94
2022-08-24T06:18:14.342Z,57.92
2022-08-24T06:19:19.951Z,57.83
2022-08-24T06:20:22.137Z,57.43
2022-08-24T06:21:28.641Z,57.04
2022-08-24T06:22:30.479Z,57.25
2022-08-24T06:23:33.224Z,57.25
2022-08-24T06:24:54.545Z,56.81
2022-08-24T06:26:20.159Z,56.97
2022-08-24T06:27:26.174Z,56.26
2022-08-24T06:28:27.758Z,56.57
2022-08-24T06:29:30.553Z,56.02
2022-08-24T06:30:32.939Z,56.37
2022-08-24T06:31:39.804Z,55.61
2022-08-24T06:32:43.954Z,55.10
2022-08-24T06:33:47.854Z,55.31
2022-08-24T06:34:49.559Z,54.73
2022-08-24T06:35:52.458Z,54.87
2022-08-24T06:36:55.737Z,54.66
2022-08-24T06:37:59.628Z,54.35
2022-08-24T06:39:01.726Z,54.26
2022-08-24T06:40:05.254Z,53.88
2022-08-24T06:41:07.440Z,53.75
2022-08-24T06:42:10.949Z,53.58
2022-08-24T06:43:12.608Z,52.73
2022-08-24T06:44:15.236Z,52.76
2022-08-24T06:45:17.191Z,53.42
2022-08-24T06:46:24.441Z,52.47
2022-08-24T06:47:28.500Z,52.53
2022-08-24T06:48:30.460Z,51.90
2022-08-24T06:49:33.054Z,51.88
2022-08-24T06:50:35.418Z,52.19
2022-08-24T06:51:38.002Z,51.41
2022-08-24T06:52:40.941Z,51.51
2022-08-24T06:53:46.263Z,51.04
2022-08-24T06:54:47.930Z,51.06
2022-08-24T06:55:51.633Z,50.65
2022-08-24T06:56:56.226Z,50.15
2022-08-24T06:57:58.348Z,49.61
2022-08-24T06:59:03.212Z,49.69
2022-08-24T07:00:07.935Z,49.25
2022-08-24T07:01:13.327Z,48.84
2022-08-24T07:02:16.306Z,49.02
2022-08-24T07:03:19.016Z,49.09
2022-08-24T07:04:21.835Z,49.25
2022-08-24T07:05:30.155Z,48.52
2022-08-24T07:06:31.774Z,49.17
2022-08-24T07:07:34.437Z,48.98
2022-08-24T07:08:37.515Z,48.32
2022-08-24T07:09:40.254Z,48.39
2022-08-24T07:10:42.613Z,49.06
2022-08-24T07:11:45.317Z,48.99
2022-08-24T07:12:47.268Z,48.96
2022-08-24T07:13:51.097Z,48.91
2022-08-24T07:14:52.849Z,48.64
2022-08-24T07:15:56.094Z,48.04
2022-08-24T07:16:58.887Z,48.02
2022-08-24T07:18:01.204Z,47.69
2022-08-24T07:19:05.279Z,48.41
2022-08-24T07:20:09.135Z,47.86
2022-08-24T07:21:11.717Z,47.85
2022-08-24T07:22:13.975Z,47.46
2022-08-24T07:23:22.442Z,48.08
2022-08-24T07:24:46.518Z,47.62
2022-08-24T07:25:52.154Z,47.70
2022-08-24T07:26:58.180Z,47.25
2022-08-24T07:28:00.713Z,47.29
2022-08-24T07:29:06.640Z,47.02
2022-08-24T07:30:26.376Z,47.19
2022-08-24T07:31:35.100Z,47.34
2022-08-24T07:32:37.119Z,47.08
2022-08-24T07:33:39.665Z,46.94
2022-08-24T07:34:41.396Z,46.30
2022-08-24T07:35:44.109Z,46.85
2022-08-24T07:36:45.777Z,46.36
2022-08-24T07:37:48.386Z,46.05
2022-08-24T07:38:53.308Z,46.11
2022-08-24T07:39:57.917Z,46.33
2022-08-24T07:41:20.621Z,46.15
2022-08-24T07:42:29.716Z,46.43
2022-08-24T07:43:33.541Z,46.00
2022-08-24T07:44:36.820Z,45.83
2022-08-24T07:45:41.972Z,45.50
2022-08-24T07:46:45.327Z,45.59
2022-08-24T07:47:54.595Z,45.39
2022-08-24T07:49:11.414Z,46.11
2022-08-24T07:50:16.249Z,45.78
2022-08-24T07:51:19.372Z,46.16
2022-08-24T07:52:22.316Z,45.32
2022-08-24T07:53:32.468Z,45.64
2022-08-24T07:54:46.592Z,45.19
2022-08-24T07:55:55.152Z,45.70
2022-08-24T07:57:02.239Z,45.36
2022-08-24T07:58:05.078Z,45.97
2022-08-24T07:59:12.339Z,45.48
2022-08-24T08:00:19.555Z,45.41
2022-08-24T08:01:23.247Z,45.04
2022-08-24T08:02:25.266Z,45.64
2022-08-24T08:03:35.305Z,45.27
2022-08-24T08:04:39.492Z,45.12
2022-08-24T08:05:43.069Z,45.64
2022-08-24T08:06:45.687Z,45.60
2022-08-24T08:07:51.504Z,45.06
2022-08-24T08:08:55.954Z,45.78
2022-08-24T08:09:57.954Z,45.14
2022-08-24T08:11:02.913Z,44.90
2022-08-24T08:12:06.497Z,45.36
2022-08-24T08:13:16.312Z,45.22
2022-08-24T08:14:19.017Z,45.43
2022-08-24T08:15:22.060Z,45.12
2022-08-24T08:16:24.870Z,44.65
2022-08-24T08:17:27.185Z,44.87
2022-08-24T08:18:29.954Z,44.59
2022-08-24T08:19:32.990Z,44.32
2022-08-24T08:20:34.862Z,44.80
2022-08-24T08:22:00.655Z,44.94
2022-08-24T08:23:20.924Z,45.05
2022-08-24T08:24:23.593Z,44.61
2022-08-24T08:25:26.465Z,44.76
2022-08-24T08:26:30.546Z,44.45
2022-08-24T08:27:32.981Z,44.88
2022-08-24T08:28:36.386Z,44.50
2022-08-24T08:29:40.434Z,43.96
2022-08-24T08:30:43.216Z,43.79
2022-08-24T08:31:45.617Z,44.35
2022-08-24T08:32:48.225Z,43.58
2022-08-24T08:33:49.802Z,44.30
2022-08-24T08:34:52.531Z,43.65
2022-08-24T08:36:03.067Z,44.06
2022-08-24T08:37:06.453Z,43.97
2022-08-24T08:38:09.005Z,43.39
2022-08-24T08:39:15.672Z,43.58
2022-08-24T08:40:28.324Z,43.86
2022-08-24T08:42:05.238Z,44.14
2022-08-24T08:43:11.624Z,43.52
2022-08-24T08:44:20.052Z,43.61
2022-08-24T08:45:36.366Z,43.48
2022-08-24T08:46:45.337Z,43.94
2022-08-24T08:48:14.745Z,43.65
2022-08-24T08:49:40.251Z,43.36
2022-08-24T08:51:03.137Z,43.86
2022-08-24T08:52:43.822Z,43.49
2022-08-24T08:54:13.098Z,43.19
2022-08-24T08:55:29.287Z,42.82
2022-08-24T08:56:35.689Z,43.24
2022-08-24T08:57:54.640Z,43.35
2022-08-24T08:59:06.644Z,42.99
2022-08-24T09:00:15.709Z,42.98
2022-08-24T09:01:32.534Z,43.15
2022-08-24T09:03:03.425Z,43.71
2022-08-24T09:04:21.631Z,43.13
2022-08-24T09:05:49.479Z,43.24
2022-08-24T09:07:08.372Z,43.18
2022-08-24T09:08:19.545Z,43.25
2022-08-24T09:09:42.522Z,43.45
2022-08-24T09:10:57.974Z,42.90
2022-08-24T09:12:08.908Z,42.84
2022-08-24T09:13:33.331Z,42.68
2022-08-24T09:15:11.012Z,42.61
2022-08-24T09:16:25.760Z,42.89
2022-08-24T09:17:46.108Z,42.43
2022-08-24T09:19:02.790Z,42.51
2022-08-24T09:20:23.790Z,42.55
2022-08-24T09:21:41.964Z,42.26
2022-08-24T09:22:48.284Z,41.96
2022-08-24T09:24:00.438Z,42.11
2022-08-24T09:25:16.829Z,42.04
2022-08-24T09:26:27.050Z,42.25
2022-08-24T09:27:41.978Z,42.07
2022-08-24T09:28:52.075Z,41.93
2022-08-24T09:30:08.131Z,42.06
2022-08-24T09:31:36.775Z,42.03
2022-08-24T09:32:56.244Z,42.24
2022-08-24T09:34:08.721Z,42.26
2022-08-24T09:35:26.296Z,42.21
2022-08-24T09:36:40.168Z,42.49
2022-08-24T09:37:59.007Z,41.87
2022-08-24T09:39:08.453Z,42.19
2022-08-24T09:40:28.095Z,42.31
2022-08-24T09:42:09.336Z,42.37
2022-08-24T09:43:44.148Z,42.20
2022-08-24T09:45:20.908Z,42.36
2022-08-24T09:46:57.767Z,42.27
2022-08-24T09:48:36.973Z,42.29
2022-08-24T09:50:03.702Z,42.52
2022-08-24T09:51:29.816Z,42.25
2022-08-24T09:52:57.843Z,42.65
2022-08-24T09:54:28.925Z,42.42
2022-08-24T09:56:02.434Z,42.57
2022-08-24T09:57:50.480Z,42.50
2022-08-24T09:59:08.645Z,42.44
2022-08-24T10:00:19.604Z,42.40
2022-08-24T10:01:30.948Z,41.99
2022-08-24T10:02:58.342Z,41.96
2022-08-24T10:04:18.899Z,42.21
2022-08-24T10:05:36.421Z,42.04
2022-08-24T10:06:52.850Z,41.80
2022-08-24T10:08:05.021Z,41.91
2022-08-24T10:09:40.832Z,41.60
2022-08-24T10:10:50.951Z,41.64
2022-08-24T10:12:01.835Z,41.17
2022-08-24T10:13:20.374Z,41.53
2022-08-24T10:14:42.082Z,41.57
2022-08-24T10:15:57.427Z,41.17
2022-08-24T10:17:09.293Z,41.19
2022-08-24T10:18:24.727Z,41.21
2022-08-24T10:19:49.553Z,41.28
2022-08-24T10:21:04.307Z,41.31
2022-08-24T10:22:15.203Z,41.08
2022-08-24T10:23:39.507Z,41.00
2022-08-24T10:25:00.655Z,41.11
2022-08-24T10:26:08.924Z,41.17
2022-08-24T10:27:24.798Z,41.11
2022-08-24T10:28:39.654Z,40.96
2022-08-24T10:30:04.588Z,40.91
2022-08-24T10:31:13.092Z,40.96
2022-08-24T10:32:41.220Z,40.88
2022-08-24T10:33:59.126Z,40.97
2022-08-24T10:35:06.664Z,40.82
2022-08-24T10:36:25.825Z,40.55
2022-08-24T10:38:13.508Z,40.67
2022-08-24T10:39:43.639Z,40.97
2022-08-24T10:40:59.167Z,40.38
2022-08-24T10:42:34.274Z,40.39
2022-08-24T10:44:06.867Z,40.60
2022-08-24T10:45:24.827Z,40.37
2022-08-24T10:49:22.214Z,40.42
2022-08-24T10:50:41.617Z,40.23
2022-08-24T10:52:00.333Z,39.94
2022-08-24T10:53:24.010Z,40.30
2022-08-24T10:54:26.217Z,39.81
2022-08-24T10:55:31.894Z,39.85
2022-08-24T10:56:41.918Z,39.84
2022-08-24T10:57:55.066Z,39.74
2022-08-24T10:59:08.161Z,39.65
2022-08-24T11:00:22.934Z,39.76
2022-08-24T11:01:30.529Z,39.34
2022-08-24T11:02:34.729Z,39.60
2022-08-24T11:03:50.454Z,39.12
2022-08-24T11:04:57.364Z,39.00
2022-08-24T11:06:00.613Z,39.29
2022-08-24T11:07:08.718Z,38.76
2022-08-24T11:08:18.097Z,39.19
2022-08-24T11:09:20.664Z,38.90
2022-08-24T11:10:25.868Z,38.99
2022-08-24T11:11:34.176Z,38.87
2022-08-24T11:12:39.921Z,38.46
2022-08-24T11:13:52.307Z,38.48
2022-08-24T11:14:56.638Z,38.71
2022-08-24T11:16:00.309Z,38.49
2022-08-24T11:17:16.324Z,38.54
2022-08-24T11:18:18.434Z,38.73
2022-08-24T11:19:33.212Z,38.41
2022-08-24T11:20:40.979Z,38.41
2022-08-24T11:21:50.962Z,37.93
2022-08-24T11:23:02.663Z,38.52
2022-08-24T11:24:09.686Z,38.81
2022-08-24T11:25:17.887Z,38.32
2022-08-24T11:26:22.160Z,38.47
2022-08-24T11:27:32.304Z,37.88
2022-08-24T11:28:38.858Z,38.07
2022-08-24T11:30:02.770Z,37.95
2022-08-24T11:31:06.042Z,38.15
2022-08-24T11:32:07.757Z,37.83
2022-08-24T11:33:28.722Z,37.84
2022-08-24T11:34:34.657Z,37.93
2022-08-24T11:35:41.252Z,37.99
2022-08-24T11:36:44.169Z,37.52
2022-08-24T11:37:49.940Z,38.12
2022-08-24T11:39:12.576Z,38.09
2022-08-24T11:40:17.932Z,37.58
2022-08-24T11:41:25.803Z,37.75
2022-08-24T11:42:38.859Z,37.42
2022-08-24T11:43:57.731Z,37.81
2022-08-24T11:45:09.133Z,37.61
2022-08-24T11:46:22.986Z,37.61
2022-08-24T11:47:43.151Z,37.73
2022-08-24T11:48:59.641Z,37.59
2022-08-24T11:50:08.672Z,37.36
2022-08-24T11:51:16.717Z,37.47
2022-08-24T11:52:27.125Z,37.33
2022-08-24T11:54:57.735Z,37.19
2022-08-24T11:56:08.023Z,37.43
2022-08-24T11:57:15.971Z,37.45
2022-08-24T11:58:30.444Z,37.72
2022-08-24T11:59:45.356Z,36.90
2022-08-24T12:01:09.531Z,36.90
2022-08-24T12:02:18.658Z,37.45
2022-08-24T12:03:35.160Z,37.14
2022-08-24T12:04:50.551Z,37.30
2022-08-24T12:05:58.838Z,37.01
2022-08-24T12:07:12.418Z,36.98
2022-08-24T12:08:23.345Z,36.54
2022-08-24T12:09:38.980Z,36.75
2022-08-24T12:10:50.571Z,36.65
2022-08-24T12:12:00.425Z,36.34
2022-08-24T12:13:11.574Z,36.10
2022-08-24T12:14:21.852Z,36.16
2022-08-24T12:15:39.368Z,36.34
2022-08-24T12:16:48.333Z,36.58
2022-08-24T12:17:56.251Z,36.32
2022-08-24T12:19:05.686Z,36.31
2022-08-24T12:20:25.716Z,35.75
2022-08-24T12:21:32.538Z,36.01
2022-08-24T12:22:34.198Z,36.23
2022-08-24T12:23:39.856Z,35.84
2022-08-24T12:24:46.824Z,35.68
2022-08-24T12:26:03.333Z,36.00
2022-08-24T12:27:11.571Z,35.83
2022-08-24T12:28:17.326Z,35.47
2022-08-24T12:29:27.256Z,35.87
2022-08-24T12:30:28.900Z,35.74
2022-08-24T12:31:40.395Z,36.23
2022-08-24T12:32:45.528Z,36.12
2022-08-24T12:33:52.013Z,35.34
2022-08-24T12:34:59.891Z,35.35
2022-08-24T12:36:04.696Z,35.53
2022-08-24T12:37:16.027Z,34.63
2022-08-24T12:38:26.334Z,35.64
2022-08-24T12:39:35.509Z,35.67
2022-08-24T12:40:43.993Z,35.04
2022-08-24T12:41:56.573Z,34.98
2022-08-24T12:43:04.747Z,35.53
2022-08-24T12:44:12.577Z,34.75
2022-08-24T12:45:18.550Z,35.33
2022-08-24T12:46:24.055Z,35.03
2022-08-24T12:47:33.120Z,35.24
2022-08-24T12:48:42.645Z,35.49
2022-08-24T12:49:51.477Z,35.10
2022-08-24T12:51:08.107Z,34.93
2022-08-24T12:52:25.284Z,35.58
2022-08-24T12:53:55.973Z,35.14
2022-08-24T12:55:16.559Z,35.17
2022-08-24T12:56:39.924Z,34.82
2022-08-24T12:57:54.155Z,35.29
2022-08-24T12:59:08.843Z,35.04
2022-08-24T13:00:16.235Z,34.23
2022-08-24T13:01:21.105Z,34.98
2022-08-24T13:02:36.619Z,34.24
2022-08-24T13:03:43.997Z,34.91
2022-08-24T13:04:58.913Z,34.17
2022-08-24T13:06:05.352Z,34.36
2022-08-24T13:07:12.073Z,34.41
2022-08-24T13:08:33.658Z,34.47
2022-08-24T13:09:40.007Z,34.70
2022-08-24T13:10:46.294Z,33.63
2022-08-24T13:11:49.257Z,34.42
2022-08-24T13:13:12.092Z,34.03
2022-08-24T13:14:20.869Z,33.98
2022-08-24T13:15:43.757Z,33.79
2022-08-24T13:17:08.645Z,34.22
2022-08-24T13:18:43.015Z,33.76
2022-08-24T13:20:07.191Z,33.76
2022-08-24T13:21:33.644Z,34.50
2022-08-24T13:23:04.815Z,34.21
2022-08-24T13:24:51.188Z,34.48
2022-08-24T13:25:58.994Z,34.45
2022-08-24T13:27:35.557Z,34.08
2022-08-24T13:28:45.395Z,34.13
2022-08-24T13:29:53.881Z,33.72
2022-08-24T13:31:28.023Z,34.34
2022-08-24T13:32:32.112Z,33.39
2022-08-24T13:33:39.703Z,33.66
2022-08-24T13:34:44.892Z,33.85
2022-08-24T13:36:06.814Z,33.47
2022-08-24T13:37:16.335Z,34.17
2022-08-24T13:38:28.962Z,34.25
2022-08-24T13:39:54.215Z,33.99
2022-08-24T13:41:01.037Z,34.29
2022-08-24T13:42:12.876Z,34.43
2022-08-24T13:43:19.307Z,34.10
2022-08-24T13:44:32.793Z,34.42
2022-08-24T13:45:40.911Z,34.37
2022-08-24T13:46:53.747Z,34.41
2022-08-24T13:48:10.224Z,34.57
2022-08-24T13:49:25.707Z,33.79
2022-08-24T13:50:33.949Z,33.62
2022-08-24T13:51:44.801Z,33.69
2022-08-24T13:53:03.770Z,33.63
2022-08-24T13:54:20.220Z,32.93
2022-08-24T13:55:35.378Z,32.96
2022-08-24T13:56:49.299Z,33.66
2022-08-24T13:58:08.061Z,32.85
2022-08-24T13:59:16.245Z,32.99
2022-08-24T14:00:43.953Z,32.87
2022-08-24T14:02:03.115Z,33.39
2022-08-24T14:03:27.055Z,32.95
2022-08-24T14:04:47.491Z,32.98
2022-08-24T14:05:57.626Z,32.40
2022-08-24T14:07:09.268Z,32.83
2022-08-24T14:08:30.019Z,32.46
2022-08-24T14:09:39.860Z,32.18
2022-08-24T14:10:54.198Z,31.89
2022-08-24T14:12:08.316Z,31.76
2022-08-24T14:13:29.116Z,31.51
2022-08-24T14:14:51.282Z,31.49
2022-08-24T14:16:14.591Z,31.82
2022-08-24T14:17:45.343Z,31.35
2022-08-24T14:18:59.667Z,31.10
2022-08-24T14:20:08.358Z,30.97
2022-08-24T14:21:17.921Z,31.50
2022-08-24T14:22:32.576Z,30.29
2022-08-24T14:23:52.463Z,30.16
2022-08-24T14:25:05.436Z,30.88
2022-08-24T14:26:41.922Z,30.53
2022-08-24T14:27:47.507Z,31.03
2022-08-24T14:28:49.800Z,30.56
2022-08-24T14:29:52.823Z,30.76
2022-08-24T14:32:45.037Z,30.82
2022-08-24T14:34:01.302Z,30.88
2022-08-24T14:35:20.979Z,30.87
2022-08-24T14:36:39.360Z,30.83
2022-08-24T14:38:05.612Z,30.38
2022-08-24T14:39:24.543Z,30.99
2022-08-24T14:40:35.029Z,30.54
2022-08-24T14:41:59.709Z,30.93
2022-08-24T14:43:21.334Z,30.05
2022-08-24T14:44:51.798Z,30.95
2022-08-24T14:45:59.289Z,30.40
2022-08-24T14:47:08.895Z,30.59